createdAt,value
2022-11-15T00:00:28.775Z,7.84
2022-11-15T00:01:23.843Z,7.84
2022-11-15T00:02:18.912Z,7.82
2022-11-15T00:03:13.958Z,7.82
2022-11-15T00:04:09.340Z,7.80
2022-11-15T00:05:04.464Z,7.76
2022-11-15T00:05:59.660Z,7.74
2022-11-15T00:06:54.777Z,7.72
2022-11-15T00:07:55.622Z,7.71
2022-11-15T00:08:46.155Z,7.67
2022-11-15T00:09:45.807Z,7.67
2022-11-15T00:10:37.325Z,7.67
2022-11-15T00:11:31.510Z,7.71
2022-11-15T00:12:26.596Z,7.74
2022-11-15T00:13:21.716Z,7.77
2022-11-15T00:14:16.723Z,7.77
2022-11-15T00:15:11.790Z,7.74
2022-11-15T00:16:06.907Z,7.70
2022-11-15T00:17:01.961Z,7.66
2022-11-15T00:17:57.103Z,7.63
2022-11-15T00:18:57.396Z,7.59
2022-11-15T00:19:52.619Z,7.58
2022-11-15T00:20:48.050Z,7.58
2022-11-15T00:21:43.853Z,7.59
2022-11-15T00:22:38.880Z,7.61
2022-11-15T00:23:34.210Z,7.60
2022-11-15T00:24:30.427Z,7.58
2022-11-15T00:25:25.713Z,7.54
2022-11-15T00:26:21.563Z,7.50
2022-11-15T00:27:16.608Z,7.49
2022-11-15T00:28:11.760Z,7.46
2022-11-15T00:29:07.609Z,7.44
2022-11-15T00:30:02.813Z,7.45
2022-11-15T00:30:58.594Z,7.49
2022-11-15T00:31:53.836Z,7.51
2022-11-15T00:32:49.176Z,7.51
2022-11-15T00:33:44.893Z,7.50
2022-11-15T00:34:40.088Z,7.51
2022-11-15T00:35:35.228Z,7.49
2022-11-15T00:36:31.610Z,7.45
2022-11-15T00:37:26.758Z,7.42
2022-11-15T00:38:22.549Z,7.37
2022-11-15T00:39:17.652Z,7.33
2022-11-15T00:40:12.754Z,7.29
2022-11-15T00:41:09.918Z,7.27
2022-11-15T00:42:03.833Z,7.26
2022-11-15T00:42:59.755Z,7.25
2022-11-15T00:43:54.892Z,7.25
2022-11-15T00:44:50.043Z,7.25
2022-11-15T00:45:45.980Z,7.24
2022-11-15T00:46:41.121Z,7.25
2022-11-15T00:47:36.471Z,7.23
2022-11-15T00:48:32.562Z,7.21
2022-11-15T00:49:27.772Z,7.19
2022-11-15T00:50:23.600Z,7.17
2022-11-15T00:51:18.728Z,7.16
2022-11-15T00:53:40.576Z,6.73
2022-11-15T00:54:33.778Z,6.96
2022-11-15T00:55:29.771Z,7.06
2022-11-15T00:56:24.226Z,7.10
2022-11-15T00:57:19.416Z,7.13
2022-11-15T00:58:14.642Z,7.17
2022-11-15T00:59:09.758Z,7.19
2022-11-15T01:00:05.011Z,7.22
2022-11-15T01:01:00.120Z,7.24
2022-11-15T01:01:55.198Z,7.25
2022-11-15T01:02:50.396Z,7.25
2022-11-15T01:03:45.723Z,7.26
2022-11-15T01:04:40.815Z,7.28
2022-11-15T01:05:36.053Z,7.29
2022-11-15T01:06:31.139Z,7.29
2022-11-15T01:07:26.381Z,7.30
2022-11-15T01:08:21.463Z,7.30
2022-11-15T01:09:16.712Z,7.31
2022-11-15T01:10:11.704Z,7.31
2022-11-15T01:11:06.966Z,7.30
2022-11-15T01:12:02.061Z,7.30
2022-11-15T01:12:57.264Z,7.29
2022-11-15T01:13:52.648Z,7.29
2022-11-15T01:14:47.800Z,7.30
2022-11-15T01:15:42.853Z,7.30
2022-11-15T01:16:37.938Z,7.30
2022-11-15T01:17:33.146Z,7.30
2022-11-15T01:18:28.330Z,7.29
2022-11-15T01:19:23.546Z,7.28
2022-11-15T01:20:18.766Z,7.27
2022-11-15T01:21:13.909Z,7.27
2022-11-15T01:22:09.055Z,7.27
2022-11-15T01:23:04.320Z,7.27
2022-11-15T01:23:59.675Z,7.25
2022-11-15T01:24:54.764Z,7.22
2022-11-15T01:25:49.995Z,7.17
2022-11-15T01:26:45.147Z,7.13
2022-11-15T01:27:40.328Z,7.12
2022-11-15T01:28:35.591Z,7.11
2022-11-15T01:29:30.726Z,7.09
2022-11-15T01:30:26.103Z,7.08
2022-11-15T01:31:21.016Z,7.07
2022-11-15T01:32:16.232Z,7.08
2022-11-15T01:33:11.465Z,7.08
2022-11-15T01:34:06.784Z,7.07
2022-11-15T01:35:01.876Z,7.07
2022-11-15T01:35:57.270Z,7.06
2022-11-15T01:36:52.214Z,7.06
2022-11-15T01:37:47.433Z,7.06
2022-11-15T01:38:42.498Z,7.06
2022-11-15T01:39:37.709Z,7.07
2022-11-15T01:40:32.898Z,7.08
2022-11-15T01:41:28.244Z,7.09
2022-11-15T01:42:23.183Z,7.15
2022-11-15T01:43:18.446Z,7.22
2022-11-15T01:44:13.775Z,7.27
2022-11-15T01:45:08.842Z,7.30
2022-11-15T01:46:04.063Z,7.30
2022-11-15T01:46:59.253Z,7.30
2022-11-15T01:47:54.358Z,7.28
2022-11-15T01:48:49.565Z,7.26
2022-11-15T01:49:44.653Z,7.24
2022-11-15T01:50:39.844Z,7.22
2022-11-15T01:51:35.090Z,7.21
2022-11-15T01:52:30.198Z,7.24
2022-11-15T01:53:25.409Z,7.23
2022-11-15T01:54:20.748Z,7.20
2022-11-15T01:55:15.828Z,7.17
2022-11-15T01:56:11.016Z,7.14
2022-11-15T01:57:06.252Z,7.11
2022-11-15T01:58:02.050Z,7.07
2022-11-15T01:58:56.574Z,7.04
2022-11-15T01:59:51.796Z,7.02
2022-11-15T02:00:47.014Z,7.01
2022-11-15T02:01:42.202Z,7.00
2022-11-15T02:02:37.330Z,7.00
2022-11-15T02:03:32.779Z,7.03
2022-11-15T02:04:27.668Z,7.06
2022-11-15T02:05:22.779Z,7.06
2022-11-15T02:06:17.831Z,7.06
2022-11-15T02:07:13.209Z,7.03
2022-11-15T02:08:08.186Z,6.98
2022-11-15T02:09:03.264Z,6.94
2022-11-15T02:09:58.334Z,6.91
2022-11-15T02:10:53.533Z,6.87
2022-11-15T02:11:48.744Z,6.84
2022-11-15T02:12:43.835Z,6.81
2022-11-15T02:13:38.999Z,6.80
2022-11-15T02:14:34.358Z,6.76
2022-11-15T02:15:29.553Z,6.72
2022-11-15T02:16:24.608Z,6.68
2022-11-15T02:17:19.757Z,6.66
2022-11-15T02:18:15.392Z,6.62
2022-11-15T02:19:10.001Z,6.61
2022-11-15T02:20:05.167Z,6.58
2022-11-15T02:21:00.216Z,6.53
2022-11-15T02:21:55.471Z,6.50
2022-11-15T02:22:51.376Z,6.47
2022-11-15T02:23:45.755Z,6.44
2022-11-15T02:24:40.953Z,6.42
2022-11-15T02:25:36.018Z,6.39
2022-11-15T02:26:31.207Z,6.38
2022-11-15T02:27:26.569Z,6.39
2022-11-15T02:28:21.540Z,6.39
2022-11-15T02:29:16.602Z,6.39
2022-11-15T02:30:11.680Z,6.39
2022-11-15T02:31:06.868Z,6.39
2022-11-15T02:32:02.217Z,6.39
2022-11-15T02:32:57.173Z,6.37
2022-11-15T02:33:52.358Z,6.36
2022-11-15T02:34:47.677Z,6.30
2022-11-15T02:35:42.764Z,6.20
2022-11-15T02:36:37.987Z,6.12
2022-11-15T02:37:33.054Z,6.10
2022-11-15T02:38:28.242Z,6.10
2022-11-15T02:39:23.413Z,6.12
2022-11-15T02:40:19.043Z,6.16
2022-11-15T02:41:13.693Z,6.20
2022-11-15T02:42:08.927Z,6.23
2022-11-15T02:43:08.141Z,6.24
2022-11-15T02:43:59.332Z,6.18
2022-11-15T02:44:54.425Z,6.12
2022-11-15T02:45:49.610Z,6.06
2022-11-15T02:46:45.083Z,6.07
2022-11-15T02:47:40.569Z,6.09
2022-11-15T02:48:35.135Z,6.19
2022-11-15T02:49:30.301Z,6.31
2022-11-15T02:50:25.373Z,6.38
2022-11-15T02:51:20.758Z,6.40
2022-11-15T02:52:15.807Z,6.40
2022-11-15T02:53:10.928Z,6.39
2022-11-15T02:54:06.070Z,6.36
2022-11-15T02:55:01.295Z,6.34
2022-11-15T02:55:56.578Z,6.30
2022-11-15T02:56:51.618Z,6.28
2022-11-15T02:57:46.698Z,6.28
2022-11-15T02:58:41.874Z,6.28
2022-11-15T02:59:37.075Z,6.27
2022-11-15T03:00:32.214Z,6.24
2022-11-15T03:01:27.300Z,6.21
2022-11-15T03:02:23.391Z,6.16
2022-11-15T03:03:17.543Z,6.12
2022-11-15T03:04:13.572Z,6.10
2022-11-15T03:05:07.802Z,6.08
2022-11-15T03:06:02.991Z,6.05
2022-11-15T03:06:58.375Z,6.02
2022-11-15T03:07:56.873Z,5.97
2022-11-15T03:08:49.451Z,5.90
2022-11-15T03:09:43.582Z,5.88
2022-11-15T03:10:38.768Z,5.89
2022-11-15T03:11:34.200Z,5.89
2022-11-15T03:12:29.854Z,5.89
2022-11-15T03:13:24.398Z,5.90
2022-11-15T03:14:19.816Z,5.88
2022-11-15T03:15:15.608Z,5.88
2022-11-15T03:16:10.785Z,5.87
2022-11-15T03:17:05.898Z,5.87
2022-11-15T03:18:01.121Z,5.86
2022-11-15T03:18:57.296Z,5.82
2022-11-15T03:19:51.441Z,5.80
2022-11-15T03:20:46.746Z,5.79
2022-11-15T03:21:41.804Z,5.79
2022-11-15T03:22:36.907Z,5.78
2022-11-15T03:23:32.470Z,5.80
2022-11-15T03:24:27.448Z,5.80
2022-11-15T03:25:22.581Z,5.79
2022-11-15T03:26:18.509Z,5.78
2022-11-15T03:27:13.615Z,5.79
2022-11-15T03:28:08.568Z,5.79
2022-11-15T03:29:04.374Z,5.77
2022-11-15T03:29:59.618Z,5.75
2022-11-15T03:30:54.952Z,5.71
2022-11-15T03:31:51.650Z,5.69
2022-11-15T03:32:46.334Z,5.67
2022-11-15T03:33:42.130Z,5.67
2022-11-15T03:34:37.319Z,5.68
2022-11-15T03:35:32.539Z,5.68
2022-11-15T03:36:28.224Z,5.69
2022-11-15T03:37:23.491Z,5.70
2022-11-15T03:38:19.382Z,5.70
2022-11-15T03:39:20.175Z,5.70
2022-11-15T03:40:10.867Z,5.68
2022-11-15T03:41:05.617Z,5.70
2022-11-15T03:42:00.717Z,5.72
2022-11-15T03:42:55.865Z,5.71
2022-11-15T03:43:52.324Z,5.70
2022-11-15T03:44:47.581Z,5.69
2022-11-15T03:45:43.541Z,5.70
2022-11-15T03:46:38.603Z,5.71
2022-11-15T03:47:33.741Z,5.70
2022-11-15T03:48:29.556Z,5.69
2022-11-15T03:49:24.683Z,5.68
2022-11-15T03:50:20.474Z,5.68
2022-11-15T03:51:15.542Z,5.66
2022-11-15T03:52:10.815Z,5.64
2022-11-15T03:53:06.474Z,5.60
2022-11-15T03:54:01.606Z,5.57
2022-11-15T03:54:56.887Z,5.54
2022-11-15T03:55:53.100Z,5.52
2022-11-15T03:56:48.340Z,5.51
2022-11-15T03:57:44.170Z,5.49
2022-11-15T03:58:39.260Z,5.48
2022-11-15T03:59:34.429Z,5.47
2022-11-15T04:00:30.249Z,5.47
2022-11-15T04:01:25.386Z,5.47
2022-11-15T04:02:21.342Z,5.47
2022-11-15T04:03:16.439Z,5.46
2022-11-15T04:04:11.846Z,5.46
2022-11-15T04:05:07.650Z,5.45
2022-11-15T04:06:02.861Z,5.45
2022-11-15T04:06:58.114Z,5.42
2022-11-15T04:07:54.358Z,5.37
2022-11-15T04:08:49.486Z,5.33
2022-11-15T04:09:45.325Z,5.29
2022-11-15T04:10:40.679Z,5.26
2022-11-15T04:11:36.172Z,5.22
2022-11-15T04:12:31.843Z,5.19
2022-11-15T04:13:26.865Z,5.18
2022-11-15T04:14:22.788Z,5.17
2022-11-15T04:15:17.936Z,5.16
2022-11-15T04:16:13.282Z,5.15
2022-11-15T04:17:08.866Z,5.15
2022-11-15T04:18:04.188Z,5.16
2022-11-15T04:18:59.330Z,5.16
2022-11-15T04:19:55.934Z,5.17
2022-11-15T04:20:51.101Z,5.18
2022-11-15T04:21:46.887Z,5.18
2022-11-15T04:22:42.135Z,5.19
2022-11-15T04:23:37.279Z,5.19
2022-11-15T04:24:33.279Z,5.21
2022-11-15T04:25:32.111Z,5.23
2022-11-15T04:26:23.564Z,5.23
2022-11-15T04:27:18.737Z,5.26
2022-11-15T04:28:13.877Z,5.29
2022-11-15T04:29:08.916Z,5.30
2022-11-15T04:30:03.952Z,5.34
2022-11-15T04:30:59.000Z,5.36
2022-11-15T04:31:53.995Z,5.40
2022-11-15T04:32:48.997Z,5.41
2022-11-15T04:33:44.068Z,5.45
2022-11-15T04:34:39.116Z,5.50
2022-11-15T04:35:34.116Z,5.54
2022-11-15T04:36:29.295Z,5.55
2022-11-15T04:37:24.318Z,5.55
2022-11-15T04:38:19.325Z,5.55
2022-11-15T04:39:14.421Z,5.57
2022-11-15T04:40:09.432Z,5.58
2022-11-15T04:41:04.552Z,5.59
2022-11-15T04:41:59.721Z,5.59
2022-11-15T04:42:57.189Z,5.64
2022-11-15T04:43:50.790Z,5.65
2022-11-15T04:44:44.872Z,5.66
2022-11-15T04:45:40.656Z,5.62
2022-11-15T04:46:35.840Z,5.61
2022-11-15T04:47:30.970Z,5.58
2022-11-15T04:48:26.409Z,5.58
2022-11-15T04:49:21.469Z,5.55
2022-11-15T04:50:16.687Z,5.56
2022-11-15T04:51:12.691Z,5.55
2022-11-15T04:52:07.851Z,5.55
2022-11-15T04:53:03.249Z,5.55
2022-11-15T04:53:58.279Z,5.55
2022-11-15T04:54:53.344Z,5.56
2022-11-15T04:55:48.502Z,5.57
2022-11-15T04:56:43.604Z,5.57
2022-11-15T04:57:38.898Z,5.59
2022-11-15T04:58:34.038Z,5.61
2022-11-15T04:59:32.952Z,5.61
2022-11-15T05:00:28.179Z,5.59
2022-11-15T05:01:23.473Z,5.60
2022-11-15T05:02:18.598Z,5.62
2022-11-15T05:03:13.861Z,5.62
2022-11-15T05:04:09.142Z,5.63
2022-11-15T05:05:04.475Z,5.65
2022-11-15T05:05:59.538Z,5.68
2022-11-15T05:06:54.737Z,5.72
2022-11-15T05:07:50.469Z,5.76
2022-11-15T05:08:45.603Z,5.77
2022-11-15T05:09:41.390Z,5.77
2022-11-15T05:10:36.636Z,5.77
2022-11-15T05:11:31.849Z,5.75
2022-11-15T05:12:27.702Z,5.72
2022-11-15T05:13:22.798Z,5.72
2022-11-15T05:14:17.910Z,5.70
2022-11-15T05:15:14.306Z,5.68
2022-11-15T05:16:09.700Z,5.65
2022-11-15T05:17:05.386Z,5.65
2022-11-15T05:18:00.518Z,5.70
2022-11-15T05:18:56.185Z,5.73
2022-11-15T05:19:51.718Z,5.75
2022-11-15T05:20:46.744Z,5.78
2022-11-15T05:21:42.731Z,5.82
2022-11-15T05:22:37.760Z,5.85
2022-11-15T05:23:33.488Z,5.88
2022-11-15T05:24:29.292Z,5.91
2022-11-15T05:25:24.337Z,5.96
2022-11-15T05:26:19.610Z,5.96
2022-11-15T05:27:15.978Z,5.97
2022-11-15T05:28:11.271Z,5.95
2022-11-15T05:29:07.156Z,5.94
2022-11-15T05:30:02.440Z,5.93
2022-11-15T05:30:57.878Z,5.91
2022-11-15T05:31:53.469Z,5.88
2022-11-15T05:32:48.705Z,5.88
2022-11-15T05:33:44.567Z,5.88
2022-11-15T05:34:39.786Z,5.87
2022-11-15T05:35:35.157Z,5.84
2022-11-15T05:36:30.929Z,5.79
2022-11-15T05:37:26.035Z,5.77
2022-11-15T05:38:21.139Z,5.73
2022-11-15T05:39:17.585Z,5.71
2022-11-15T05:40:12.936Z,5.69
2022-11-15T05:41:08.646Z,5.67
2022-11-15T05:42:03.854Z,5.69
2022-11-15T05:42:59.051Z,5.69
2022-11-15T05:43:55.036Z,5.75
2022-11-15T05:44:50.101Z,5.83
2022-11-15T05:45:45.838Z,5.91
2022-11-15T05:46:40.964Z,5.93
2022-11-15T05:47:36.311Z,5.94
2022-11-15T05:48:31.863Z,5.95
2022-11-15T05:49:27.163Z,5.99
2022-11-15T05:50:22.321Z,6.00
2022-11-15T05:51:18.761Z,6.02
2022-11-15T05:52:13.954Z,6.01
2022-11-15T05:53:09.779Z,6.00
2022-11-15T05:54:04.886Z,6.02
2022-11-15T05:55:00.024Z,6.05
2022-11-15T05:55:55.840Z,6.03
2022-11-15T05:56:51.164Z,6.01
2022-11-15T05:57:47.139Z,6.01
2022-11-15T05:58:43.139Z,5.99
2022-11-15T05:59:37.580Z,5.96
2022-11-15T06:00:33.504Z,5.93
2022-11-15T06:01:28.650Z,5.92
2022-11-15T06:02:23.958Z,5.89
2022-11-15T06:03:20.274Z,5.85
2022-11-15T06:04:15.404Z,5.83
2022-11-15T06:05:11.265Z,5.81
2022-11-15T06:06:06.670Z,5.78
2022-11-15T06:07:02.079Z,5.77
2022-11-15T06:07:57.164Z,5.75
2022-11-15T06:08:52.401Z,5.73
2022-11-15T06:09:48.864Z,5.70
2022-11-15T06:10:44.283Z,5.67
2022-11-15T06:11:39.924Z,5.64
2022-11-15T06:12:35.131Z,5.62
2022-11-15T06:13:30.781Z,5.58
2022-11-15T06:14:26.293Z,5.55
2022-11-15T06:15:22.467Z,5.54
2022-11-15T06:16:17.431Z,5.53
2022-11-15T06:17:12.525Z,5.54
2022-11-15T06:18:07.812Z,5.55
2022-11-15T06:19:03.531Z,5.57
2022-11-15T06:19:58.849Z,5.60
2022-11-15T06:20:54.310Z,5.62
2022-11-15T06:21:50.519Z,5.63
2022-11-15T06:22:45.830Z,5.63
2022-11-15T06:23:42.490Z,5.64
2022-11-15T06:24:38.242Z,5.63
2022-11-15T06:25:32.756Z,5.63
2022-11-15T06:26:27.958Z,5.63
2022-11-15T06:27:23.316Z,5.63
2022-11-15T06:28:18.675Z,5.66
2022-11-15T06:29:15.505Z,5.70
2022-11-15T06:30:10.856Z,5.76
2022-11-15T06:31:07.181Z,5.84
2022-11-15T06:32:01.555Z,5.90
2022-11-15T06:32:56.626Z,5.93
2022-11-15T06:33:51.726Z,5.94
2022-11-15T06:34:46.789Z,5.97
2022-11-15T06:35:41.888Z,5.97
2022-11-15T06:36:36.990Z,5.96
2022-11-15T06:37:32.051Z,5.97
2022-11-15T06:38:27.174Z,5.98
2022-11-15T06:39:22.276Z,6.02
2022-11-15T06:40:19.194Z,6.05
2022-11-15T06:41:14.411Z,6.09
2022-11-15T06:42:09.788Z,6.09
2022-11-15T06:43:05.150Z,6.09
2022-11-15T06:44:00.234Z,6.06
2022-11-15T06:44:55.202Z,6.07
2022-11-15T06:45:50.215Z,6.05
2022-11-15T06:46:45.223Z,6.04
2022-11-15T06:47:40.358Z,6.02
2022-11-15T06:48:35.332Z,6.00
2022-11-15T06:49:32.613Z,5.98
2022-11-15T06:50:27.628Z,5.97
2022-11-15T06:51:22.587Z,5.97
2022-11-15T06:52:19.721Z,5.95
2022-11-15T06:53:12.815Z,5.94
2022-11-15T06:54:08.287Z,5.96
2022-11-15T06:55:02.765Z,6.00
2022-11-15T06:55:57.765Z,6.04
2022-11-15T06:56:52.811Z,6.09
2022-11-15T06:57:47.806Z,6.19
2022-11-15T06:58:42.865Z,6.35
2022-11-15T06:59:40.672Z,6.48
2022-11-15T07:00:33.233Z,6.64
2022-11-15T07:01:28.868Z,6.85
2022-11-15T07:02:24.143Z,7.00
2022-11-15T07:03:19.587Z,7.08
2022-11-15T07:04:17.488Z,7.16
2022-11-15T07:05:12.816Z,7.12
2022-11-15T07:06:08.262Z,7.03
2022-11-15T07:07:03.769Z,6.96
2022-11-15T07:07:59.279Z,6.90
2022-11-15T07:08:54.819Z,6.84
2022-11-15T07:09:50.850Z,6.78
2022-11-15T07:10:44.953Z,6.78
2022-11-15T07:11:40.021Z,7.00
2022-11-15T07:12:35.110Z,7.36
2022-11-15T07:13:30.809Z,7.71
2022-11-15T07:14:25.317Z,8.02
2022-11-15T07:15:20.379Z,8.28
2022-11-15T07:16:15.525Z,8.49
2022-11-15T07:17:10.574Z,8.69
2022-11-15T07:18:05.676Z,8.70
2022-11-15T07:19:00.758Z,8.62
2022-11-15T07:19:56.077Z,8.63
2022-11-15T07:20:51.489Z,8.75
2022-11-15T07:21:47.738Z,9.06
2022-11-15T07:22:42.391Z,9.31
2022-11-15T07:23:37.903Z,9.54
2022-11-15T07:24:33.677Z,9.79
2022-11-15T07:25:29.295Z,9.98
2022-11-15T07:26:24.391Z,10.15
2022-11-15T07:27:19.876Z,10.40
2022-11-15T07:28:15.324Z,10.61
2022-11-15T07:29:10.715Z,10.68
2022-11-15T07:30:06.242Z,10.65
2022-11-15T07:31:01.723Z,10.61
2022-11-15T07:31:58.208Z,10.63
2022-11-15T07:32:53.642Z,10.54
2022-11-15T07:33:49.173Z,10.36
2022-11-15T07:34:44.872Z,10.25
2022-11-15T07:35:40.327Z,10.18
2022-11-15T07:36:35.879Z,10.11
2022-11-15T07:37:30.888Z,10.05
2022-11-15T07:38:25.893Z,9.97
2022-11-15T07:39:21.378Z,10.04
2022-11-15T07:40:15.885Z,10.18
2022-11-15T07:41:10.991Z,10.32
2022-11-15T07:42:06.166Z,10.40
2022-11-15T07:43:01.155Z,10.56
2022-11-15T07:43:56.249Z,10.69
2022-11-15T07:44:55.295Z,10.86
2022-11-15T07:45:53.512Z,10.82
2022-11-15T07:46:46.515Z,10.66
2022-11-15T07:47:40.707Z,10.67
2022-11-15T07:48:44.044Z,10.70
2022-11-15T07:49:33.337Z,10.81
2022-11-15T07:50:27.790Z,11.02
2022-11-15T07:51:23.113Z,11.10
2022-11-15T07:52:18.602Z,11.22
2022-11-15T07:53:14.173Z,11.25
2022-11-15T07:54:09.648Z,11.35
2022-11-15T07:55:05.101Z,11.39
2022-11-15T07:56:00.470Z,11.46
2022-11-15T07:56:55.916Z,11.66
2022-11-15T07:57:51.394Z,11.81
2022-11-15T07:58:46.827Z,11.92
2022-11-15T07:59:42.393Z,11.89
2022-11-15T08:00:37.833Z,11.89
2022-11-15T08:01:32.936Z,11.98
2022-11-15T08:02:30.614Z,12.09
2022-11-15T08:03:23.209Z,12.10
2022-11-15T08:04:17.987Z,12.07
2022-11-15T08:05:13.128Z,12.08
2022-11-15T08:06:08.086Z,12.17
2022-11-15T08:07:03.330Z,12.33
2022-11-15T08:07:59.142Z,12.35
2022-11-15T08:08:54.414Z,12.51
2022-11-15T08:09:49.395Z,12.62
2022-11-15T08:10:44.545Z,12.68
2022-11-15T08:11:40.620Z,12.37
2022-11-15T08:12:35.929Z,12.05
2022-11-15T08:13:31.559Z,11.88
2022-11-15T08:14:26.667Z,11.95
2022-11-15T08:15:22.894Z,12.17
2022-11-15T08:16:18.261Z,12.25
2022-11-15T08:17:13.650Z,12.27
2022-11-15T08:18:09.052Z,12.30
2022-11-15T08:19:04.432Z,12.34
2022-11-15T08:19:59.930Z,12.29
2022-11-15T08:20:55.351Z,12.25
2022-11-15T08:21:50.721Z,12.30
2022-11-15T08:22:46.102Z,12.36
2022-11-15T08:23:41.476Z,12.28
2022-11-15T08:24:37.298Z,12.30
2022-11-15T08:25:31.640Z,12.35
2022-11-15T08:26:27.610Z,12.33
2022-11-15T08:27:21.717Z,12.55
2022-11-15T08:28:16.763Z,12.87
2022-11-15T08:29:11.874Z,13.14
2022-11-15T08:30:06.961Z,13.32
2022-11-15T08:31:04.904Z,13.36
2022-11-15T08:31:59.650Z,13.52
2022-11-15T08:32:54.766Z,13.43
2022-11-15T08:33:49.840Z,13.18
2022-11-15T08:34:44.944Z,12.89
2022-11-15T08:35:39.935Z,12.51
2022-11-15T08:36:44.606Z,12.24
2022-11-15T08:37:31.108Z,12.10
2022-11-15T08:38:25.116Z,12.01
2022-11-15T08:39:20.213Z,11.83
2022-11-15T08:40:15.274Z,11.98
2022-11-15T08:41:10.594Z,12.09
2022-11-15T08:42:05.422Z,12.30
2022-11-15T08:43:00.552Z,12.50
2022-11-15T08:43:55.993Z,12.67
2022-11-15T08:44:51.352Z,12.53
2022-11-15T08:45:46.762Z,12.22
2022-11-15T08:46:42.266Z,12.23
2022-11-15T08:47:37.792Z,12.11
2022-11-15T08:48:33.504Z,11.93
2022-11-15T08:49:28.722Z,11.90
2022-11-15T08:50:24.245Z,11.78
2022-11-15T08:51:19.472Z,11.70
2022-11-15T08:52:14.900Z,11.79
2022-11-15T08:53:10.344Z,12.10
2022-11-15T08:54:07.413Z,12.00
2022-11-15T08:55:01.937Z,12.13
2022-11-15T08:55:57.328Z,11.84
2022-11-15T08:56:52.711Z,11.81
2022-11-15T08:57:48.139Z,11.69
2022-11-15T08:58:43.507Z,11.87
2022-11-15T08:59:38.984Z,12.04
2022-11-15T09:00:34.415Z,12.28
2022-11-15T09:01:30.124Z,12.42
2022-11-15T09:02:25.636Z,12.51
2022-11-15T09:03:20.857Z,12.73
2022-11-15T09:04:15.715Z,12.79
2022-11-15T09:05:10.807Z,12.69
2022-11-15T09:06:05.884Z,12.43
2022-11-15T09:07:01.046Z,12.29
2022-11-15T09:07:56.036Z,12.53
2022-11-15T09:08:51.210Z,12.84
2022-11-15T09:09:48.559Z,13.26
2022-11-15T09:10:43.952Z,13.69
2022-11-15T09:11:39.405Z,13.85
2022-11-15T09:12:34.905Z,13.56
2022-11-15T09:13:30.408Z,13.02
2022-11-15T09:14:25.895Z,12.44
2022-11-15T09:15:21.335Z,12.19
2022-11-15T09:16:16.719Z,12.07
2022-11-15T09:17:12.213Z,12.40
2022-11-15T09:18:07.629Z,12.85
2022-11-15T09:19:06.416Z,13.01
2022-11-15T09:19:59.540Z,13.00
2022-11-15T09:20:54.000Z,13.22
2022-11-15T09:21:49.469Z,13.51
2022-11-15T09:22:45.275Z,13.82
2022-11-15T09:23:40.327Z,14.15
2022-11-15T09:24:35.321Z,14.54
2022-11-15T09:25:30.342Z,14.81
2022-11-15T09:26:25.436Z,14.92
2022-11-15T09:27:20.477Z,14.88
2022-11-15T09:28:15.637Z,14.63
2022-11-15T09:29:10.651Z,13.94
2022-11-15T09:30:05.726Z,13.31
2022-11-15T09:31:00.711Z,12.99
2022-11-15T09:31:55.837Z,12.47
2022-11-15T09:32:50.902Z,11.84
2022-11-15T09:33:46.025Z,11.08
2022-11-15T09:34:41.088Z,10.62
2022-11-15T09:35:36.122Z,9.99
2022-11-15T09:36:31.227Z,9.57
2022-11-15T09:37:27.165Z,9.37
2022-11-15T09:38:21.434Z,9.45
2022-11-15T09:39:16.530Z,10.20
2022-11-15T09:40:11.712Z,10.82
2022-11-15T09:41:07.533Z,11.22
2022-11-15T09:42:02.381Z,11.57
2022-11-15T09:42:58.256Z,11.84
2022-11-15T09:43:53.743Z,11.98
2022-11-15T09:44:49.269Z,12.15
2022-11-15T09:45:44.810Z,12.06
2022-11-15T09:46:41.022Z,12.21
2022-11-15T09:47:35.649Z,12.42
2022-11-15T09:48:31.384Z,12.41
2022-11-15T09:49:26.612Z,12.37
2022-11-15T09:50:21.882Z,12.34
2022-11-15T09:51:17.381Z,12.15
2022-11-15T09:52:12.727Z,11.92
2022-11-15T09:53:07.759Z,11.86
2022-11-15T09:54:45.488Z,11.81
2022-11-15T09:54:58.800Z,11.71
2022-11-15T09:55:52.865Z,11.92
2022-11-15T09:56:47.920Z,12.21
2022-11-15T09:57:43.097Z,12.56
2022-11-15T09:58:37.994Z,12.71
2022-11-15T09:59:33.069Z,12.71
2022-11-15T10:01:24.189Z,12.90
2022-11-15T10:02:22.278Z,13.13
2022-11-15T10:03:17.333Z,13.39
2022-11-15T10:04:12.773Z,13.49
2022-11-15T10:05:08.233Z,13.56
2022-11-15T10:06:03.640Z,13.41
2022-11-15T10:06:59.287Z,13.44
2022-11-15T10:07:54.555Z,13.11
2022-11-15T10:08:50.090Z,13.07
2022-11-15T10:09:45.503Z,13.09
2022-11-15T10:10:40.942Z,13.23
2022-11-15T10:11:38.120Z,13.18
2022-11-15T10:12:31.840Z,13.45
2022-11-15T10:13:27.161Z,13.46
2022-11-15T10:14:22.578Z,13.45
2022-11-15T10:15:18.058Z,13.57
2022-11-15T10:16:13.172Z,13.57
2022-11-15T10:17:08.188Z,13.79
2022-11-15T10:18:03.233Z,13.75
2022-11-15T10:18:58.337Z,13.78
2022-11-15T10:19:53.458Z,14.00
2022-11-15T10:20:48.507Z,14.34
2022-11-15T10:21:44.180Z,14.53
2022-11-15T10:22:39.201Z,14.55
2022-11-15T10:23:33.677Z,14.40
2022-11-15T10:24:29.356Z,14.21
2022-11-15T10:25:25.201Z,14.29
2022-11-15T10:26:20.342Z,14.23
2022-11-15T10:27:15.672Z,14.32
2022-11-15T10:28:10.713Z,14.45
2022-11-15T10:29:06.553Z,14.15
2022-11-15T10:30:02.054Z,13.71
2022-11-15T10:30:57.604Z,13.65
2022-11-15T10:31:53.150Z,13.98
2022-11-15T10:32:48.457Z,14.26
2022-11-15T10:33:43.864Z,14.65
2022-11-15T10:36:04.230Z,14.72
2022-11-15T10:36:59.554Z,15.36
2022-11-15T10:37:54.986Z,15.66
2022-11-15T10:38:50.424Z,15.94
2022-11-15T10:39:45.876Z,16.12
2022-11-15T10:40:41.283Z,16.02
2022-11-15T10:41:36.731Z,16.00
2022-11-15T10:42:32.151Z,15.83
2022-11-15T10:43:27.570Z,15.93
2022-11-15T10:44:23.037Z,16.12
2022-11-15T10:45:18.457Z,16.15
2022-11-15T10:46:44.521Z,16.05
2022-11-15T10:47:10.611Z,15.96
2022-11-15T10:48:05.141Z,15.94
2022-11-15T10:49:00.749Z,16.06
2022-11-15T10:49:56.423Z,15.93
2022-11-15T10:50:51.790Z,15.91
2022-11-15T10:51:47.303Z,15.99
2022-11-15T10:52:42.660Z,15.99
2022-11-15T10:53:38.606Z,16.17
2022-11-15T10:54:33.478Z,16.19
2022-11-15T10:55:28.865Z,16.16
2022-11-15T10:56:24.315Z,16.21
2022-11-15T10:57:19.616Z,16.38
2022-11-15T10:58:15.016Z,16.46
2022-11-15T10:59:10.556Z,16.55
2022-11-15T11:00:06.214Z,16.63
2022-11-15T11:01:01.640Z,16.87
2022-11-15T11:01:57.114Z,16.78
2022-11-15T11:02:52.639Z,16.45
2022-11-15T11:03:48.159Z,16.03
2022-11-15T11:04:43.636Z,15.79
2022-11-15T11:05:42.172Z,15.64
2022-11-15T11:06:34.531Z,15.51
2022-11-15T11:07:30.311Z,15.74
2022-11-15T11:08:25.507Z,15.96
2022-11-15T11:09:20.991Z,16.18
2022-11-15T11:10:44.191Z,16.41
2022-11-15T11:11:13.065Z,16.68
2022-11-15T11:12:07.526Z,16.84
2022-11-15T11:13:03.061Z,16.98
2022-11-15T11:13:58.445Z,16.86
2022-11-15T11:14:53.866Z,16.46
2022-11-15T11:15:49.288Z,16.04
2022-11-15T11:16:44.689Z,15.58
2022-11-15T11:17:40.372Z,15.47
2022-11-15T11:18:35.779Z,15.42
2022-11-15T11:19:31.187Z,15.63
2022-11-15T11:20:26.700Z,15.63
2022-11-15T11:21:25.671Z,15.67
2022-11-15T11:22:18.518Z,15.69
2022-11-15T11:23:12.933Z,15.69
2022-11-15T11:24:08.450Z,15.78
2022-11-15T11:25:03.917Z,15.97
2022-11-15T11:26:00.095Z,16.07
2022-11-15T11:26:57.169Z,15.99
2022-11-15T11:27:50.558Z,16.02
2022-11-15T11:28:46.121Z,16.00
2022-11-15T11:29:41.539Z,16.02
2022-11-15T11:30:36.915Z,16.07
2022-11-15T11:31:32.397Z,16.16
2022-11-15T11:32:27.897Z,15.97
2022-11-15T11:33:23.536Z,15.67
2022-11-15T11:34:19.020Z,15.66
2022-11-15T11:35:14.495Z,15.66
2022-11-15T11:36:10.130Z,15.67
2022-11-15T11:37:06.178Z,15.55
2022-11-15T11:38:01.099Z,15.81
2022-11-15T11:38:56.584Z,15.63
2022-11-15T11:39:52.017Z,15.73
2022-11-15T11:40:47.451Z,15.86
2022-11-15T11:41:42.960Z,15.85
2022-11-15T11:42:38.443Z,15.98
2022-11-15T11:43:33.997Z,16.19
2022-11-15T11:44:30.231Z,16.25
2022-11-15T11:45:24.904Z,16.23
2022-11-15T11:46:20.477Z,16.34
2022-11-15T11:47:16.108Z,16.37
2022-11-15T11:48:11.456Z,16.38
2022-11-15T11:49:06.954Z,16.34
2022-11-15T11:50:02.477Z,16.28
2022-11-15T11:50:58.451Z,16.31
2022-11-15T11:51:53.510Z,16.62
2022-11-15T11:52:48.871Z,16.73
2022-11-15T11:53:44.371Z,16.68
2022-11-15T11:54:39.869Z,16.61
2022-11-15T11:55:35.365Z,16.40
2022-11-15T11:56:30.939Z,16.39
2022-11-15T11:57:26.542Z,16.22
2022-11-15T11:58:22.039Z,15.93
2022-11-15T11:59:17.357Z,15.75
2022-11-15T12:00:12.941Z,15.56
2022-11-15T12:01:12.547Z,15.33
2022-11-15T12:02:04.160Z,14.97
2022-11-15T12:02:59.573Z,14.93
2022-11-15T12:03:55.157Z,14.82
2022-11-15T12:04:50.582Z,14.62
2022-11-15T12:05:46.151Z,14.44
2022-11-15T12:06:41.639Z,14.37
2022-11-15T12:07:37.119Z,14.15
2022-11-15T12:08:32.822Z,13.91
2022-11-15T12:09:28.125Z,13.78
2022-11-15T12:10:23.608Z,13.67
2022-11-15T12:11:19.177Z,13.55